createdAt,value
2018-04-27T00:01:44.785Z,101056.77
2018-04-27T00:04:13.096Z,101054.13
2018-04-27T00:06:41.430Z,101055.40
2018-04-27T00:09:09.793Z,101057.95
2018-04-27T00:11:38.109Z,101053.13
2018-04-27T00:14:07.601Z,101058.83
2018-04-27T00:16:35.911Z,101052.27
2018-04-27T00:19:04.654Z,101047.02
2018-04-27T00:21:33.742Z,101050.92
2018-04-27T00:24:02.164Z,101047.81
2018-04-27T00:26:30.417Z,101040.73
2018-04-27T00:28:59.153Z,101036.34
2018-04-27T00:31:27.504Z,101038.00
2018-04-27T00:33:55.853Z,101041.86
2018-04-27T00:36:24.144Z,101043.16
2018-04-27T00:38:53.270Z,101043.56
2018-04-27T00:41:22.353Z,101041.75
2018-04-27T00:43:50.699Z,101045.20
2018-04-27T00:46:19.025Z,101052.59
2018-04-27T00:48:47.752Z,101053.48
2018-04-27T00:51:16.092Z,101051.68
2018-04-27T00:53:45.196Z,101041.59
2018-04-27T00:56:14.281Z,101040.30
2018-04-27T00:58:42.640Z,101042.45
2018-04-27T01:01:11.331Z,101035.86
2018-04-27T01:03:39.708Z,101035.83
2018-04-27T01:06:08.046Z,101035.41
2018-04-27T01:08:36.365Z,101032.77
2018-04-27T01:11:04.720Z,101035.42
2018-04-27T01:13:33.473Z,101038.46
2018-04-27T01:16:01.840Z,101034.95
2018-04-27T01:18:31.308Z,101038.44
2018-04-27T01:21:00.417Z,101033.22
2018-04-27T01:23:28.730Z,101040.58
2018-04-27T01:25:57.063Z,101044.51
2018-04-27T01:28:25.368Z,101048.88
2018-04-27T01:30:53.716Z,101051.53
2018-04-27T01:33:22.052Z,101048.88
2018-04-27T01:35:50.373Z,101041.86
2018-04-27T01:38:19.735Z,101047.95
2018-04-27T01:40:48.820Z,101050.58
2018-04-27T01:43:17.154Z,101052.34
2018-04-27T01:45:45.480Z,101051.02
2018-04-27T01:48:14.569Z,101049.70
2018-04-27T01:50:42.870Z,101048.39
2018-04-27T01:53:11.983Z,101046.68
2018-04-27T01:55:40.353Z,101051.02
2018-04-27T01:58:09.429Z,101044.44
2018-04-27T02:00:39.495Z,101046.61
2018-04-27T02:03:08.709Z,101044.84
2018-04-27T02:05:37.051Z,101044.86
2018-04-27T02:08:05.851Z,101049.23
2018-04-27T02:10:34.528Z,101051.42
2018-04-27T02:13:02.857Z,101051.96
2018-04-27T02:15:31.617Z,101048.97
2018-04-27T02:17:59.956Z,101041.98
2018-04-27T02:20:28.256Z,101043.19
2018-04-27T02:22:56.805Z,101038.77
2018-04-27T02:25:26.197Z,101041.81
2018-04-27T02:27:55.579Z,101039.63
2018-04-27T02:30:26.797Z,101036.94
2018-04-27T02:32:55.091Z,101030.31
2018-04-27T02:35:24.266Z,101026.36
2018-04-27T02:37:52.628Z,101030.28
2018-04-27T02:40:21.052Z,101028.47
2018-04-27T02:42:50.173Z,101031.13
2018-04-27T02:45:19.595Z,101028.48
2018-04-27T02:47:49.520Z,101021.48
2018-04-27T02:50:17.919Z,101022.83
2018-04-27T02:52:47.883Z,101022.95
2018-04-27T02:55:16.596Z,101015.95
2018-04-27T02:57:45.703Z,101016.78
2018-04-27T03:00:14.173Z,101021.55
2018-04-27T03:02:42.836Z,101027.63
2018-04-27T03:05:12.580Z,101028.88
2018-04-27T03:07:41.777Z,101030.56
2018-04-27T03:10:10.220Z,101031.88
2018-04-27T03:12:40.533Z,101034.52
2018-04-27T03:15:09.021Z,101030.11
2018-04-27T03:17:38.156Z,101028.73
2018-04-27T03:20:06.748Z,101032.63
2018-04-27T03:22:36.756Z,101032.65
2018-04-27T03:25:05.931Z,101035.27
2018-04-27T03:27:34.651Z,101032.59
2018-04-27T03:30:03.589Z,101033.02
2018-04-27T03:32:41.704Z,101031.32
2018-04-27T03:35:11.573Z,101025.17
2018-04-27T03:37:39.912Z,101027.78
2018-04-27T03:40:08.269Z,101031.23
2018-04-27T03:42:38.101Z,101033.88
2018-04-27T03:45:08.626Z,101032.55
2018-04-27T03:47:38.299Z,101030.80
2018-04-27T03:50:06.643Z,100995.66
2018-04-27T03:52:35.012Z,101027.76
2018-04-27T03:55:03.591Z,101033.87
2018-04-27T03:57:31.945Z,101029.06
2018-04-27T04:00:18.900Z,101035.23
2018-04-27T04:03:05.264Z,101043.13
2018-04-27T04:05:33.609Z,101044.10
2018-04-27T04:08:02.133Z,101046.45
2018-04-27T04:10:32.631Z,101053.22
2018-04-27T04:13:00.977Z,101052.45
2018-04-27T04:15:30.259Z,101055.59
2018-04-27T04:17:58.604Z,101057.42
2018-04-27T04:20:27.215Z,101058.35
2018-04-27T04:22:57.402Z,101057.52
2018-04-27T04:25:26.502Z,101055.00
2018-04-27T04:27:54.901Z,101058.53
2018-04-27T04:30:24.131Z,101053.41
2018-04-27T04:32:53.486Z,101058.30
2018-04-27T04:35:24.381Z,101058.35
2018-04-27T04:37:53.313Z,101055.34
2018-04-27T04:40:22.443Z,101065.89
2018-04-27T04:42:50.785Z,101062.91
2018-04-27T04:45:20.571Z,101061.66
2018-04-27T04:47:49.851Z,101064.77
2018-04-27T04:50:18.225Z,101064.34
2018-04-27T04:52:47.326Z,101065.72
2018-04-27T04:55:15.867Z,101067.02
2018-04-27T04:57:44.806Z,101068.36
2018-04-27T05:00:14.210Z,101075.40
2018-04-27T05:02:42.759Z,101075.82
2018-04-27T05:05:12.118Z,101081.56
2018-04-27T05:07:43.002Z,101079.35
2018-04-27T05:10:12.363Z,101086.80
2018-04-27T05:12:43.007Z,101085.47
2018-04-27T05:15:11.406Z,101086.81
2018-04-27T05:17:39.782Z,101084.59
2018-04-27T05:20:07.363Z,101075.83
2018-04-27T05:22:35.665Z,101082.80
2018-04-27T05:25:05.107Z,101077.92
2018-04-27T05:27:34.177Z,101079.66
2018-04-27T05:30:03.594Z,101080.95
2018-04-27T05:32:32.950Z,101081.80
2018-04-27T05:35:01.377Z,101077.36
2018-04-27T05:37:32.350Z,101077.28
2018-04-27T05:40:01.533Z,101078.94
2018-04-27T05:42:30.066Z,101081.03
2018-04-27T05:44:59.034Z,101075.23
2018-04-27T05:47:29.892Z,101076.08
2018-04-27T05:49:58.629Z,101080.84
2018-04-27T05:52:27.887Z,101079.39
2018-04-27T05:54:57.145Z,101078.80
2018-04-27T05:57:25.549Z,101083.48
2018-04-27T05:59:53.959Z,101078.88
2018-04-27T06:02:23.047Z,101080.92
2018-04-27T06:04:51.557Z,101076.34
2018-04-27T06:07:21.832Z,101076.67
2018-04-27T06:09:51.002Z,101071.11
2018-04-27T06:12:20.068Z,101070.66
2018-04-27T06:14:49.513Z,101072.48
2018-04-27T06:17:19.512Z,101073.38
2018-04-27T06:19:47.937Z,101070.78
2018-04-27T06:22:17.458Z,101066.42
2018-04-27T06:24:47.259Z,101067.84
2018-04-27T06:27:16.401Z,101064.96
2018-04-27T06:29:46.677Z,101065.77
2018-04-27T06:32:16.106Z,101069.52
2018-04-27T06:34:45.628Z,101067.73
2018-04-27T06:37:14.008Z,101066.20
2018-04-27T06:39:43.904Z,101071.66
2018-04-27T06:42:14.032Z,101059.25
2018-04-27T06:44:42.670Z,101055.95
2018-04-27T06:47:12.195Z,101056.02
2018-04-27T06:49:41.473Z,101057.39
2018-04-27T06:52:11.249Z,101055.67
2018-04-27T06:54:41.168Z,101053.92
2018-04-27T06:57:10.826Z,101037.64
2018-04-27T06:59:40.271Z,101052.84
2018-04-27T07:02:09.352Z,101058.39
2018-04-27T07:04:38.816Z,101051.81
2018-04-27T07:07:08.417Z,101042.81
2018-04-27T07:09:40.033Z,101045.95
2018-04-27T07:12:14.811Z,101041.22
2018-04-27T07:14:44.889Z,101035.98
2018-04-27T07:17:17.525Z,101037.42
2018-04-27T07:19:47.712Z,101040.60
2018-04-27T07:22:18.644Z,101037.42
2018-04-27T07:24:48.301Z,101035.40
2018-04-27T07:27:18.809Z,101025.41
2018-04-27T07:29:47.149Z,101028.47
2018-04-27T07:32:15.762Z,101023.68
2018-04-27T07:34:44.859Z,101031.72
2018-04-27T07:37:14.849Z,101026.30
2018-04-27T07:39:44.033Z,101028.88
2018-04-27T07:42:12.333Z,101030.34
2018-04-27T07:44:44.423Z,101030.55
2018-04-27T07:47:13.103Z,101031.88
2018-04-27T07:49:41.566Z,101030.58
2018-04-27T07:52:10.857Z,101026.07
2018-04-27T07:54:39.960Z,101023.91
2018-04-27T07:57:09.067Z,101026.25
2018-04-27T07:59:37.428Z,101022.73
2018-04-27T08:02:07.615Z,101031.41
2018-04-27T08:04:35.905Z,101024.47
2018-04-27T08:07:04.215Z,101018.58
2018-04-27T08:09:33.357Z,101015.30
2018-04-27T08:12:02.472Z,101018.67
2018-04-27T08:14:30.851Z,101010.33
2018-04-27T08:16:59.183Z,101022.79
2018-04-27T08:19:31.575Z,101023.37
2018-04-27T08:22:00.506Z,101023.63
2018-04-27T08:24:28.865Z,101024.63
2018-04-27T08:26:57.229Z,101018.63
2018-04-27T08:29:25.588Z,101018.67
2018-04-27T08:31:54.295Z,101018.98
2018-04-27T08:34:23.472Z,101010.85
2018-04-27T08:36:51.846Z,101012.50
2018-04-27T08:39:20.178Z,101012.75
2018-04-27T08:41:48.504Z,101007.34
2018-04-27T08:44:16.864Z,101005.12
2018-04-27T08:46:45.224Z,101005.80
2018-04-27T08:49:14.316Z,100981.95
2018-04-27T08:51:43.440Z,100992.23
2018-04-27T08:54:11.819Z,100992.22
2018-04-27T08:56:40.159Z,100987.42
2018-04-27T08:59:09.306Z,100996.42
2018-04-27T09:01:37.623Z,100992.99
2018-04-27T09:04:05.960Z,100994.62
2018-04-27T09:06:34.274Z,100988.72
2018-04-27T09:09:02.617Z,100987.53
2018-04-27T09:11:30.942Z,100982.94
2018-04-27T09:14:00.758Z,100980.78
2018-04-27T09:16:29.134Z,100982.25
2018-04-27T09:18:57.495Z,100988.30
2018-04-27T09:21:25.854Z,100991.32
2018-04-27T09:23:54.231Z,100984.61
2018-04-27T09:26:22.560Z,100994.33
2018-04-27T09:28:51.688Z,100987.51
2018-04-27T09:31:20.013Z,100981.44
2018-04-27T09:33:49.157Z,100978.77
2018-04-27T09:36:17.496Z,100975.04
2018-04-27T09:38:47.642Z,100977.02
2018-04-27T09:41:16.182Z,100972.06
2018-04-27T09:43:44.508Z,100969.78
2018-04-27T09:46:12.870Z,100969.51
2018-04-27T09:48:42.114Z,100966.55
2018-04-27T09:51:10.466Z,100959.87
2018-04-27T09:53:38.827Z,100956.09
2018-04-27T09:56:08.204Z,100949.00
2018-04-27T09:58:37.303Z,100952.55
2018-04-27T10:01:06.424Z,100945.94
2018-04-27T10:03:34.741Z,100942.47
2018-04-27T10:06:03.093Z,100935.56
2018-04-27T10:08:31.440Z,100929.89
2018-04-27T10:11:00.544Z,100933.08
2018-04-27T10:13:28.900Z,100934.91
2018-04-27T10:15:57.985Z,100930.89
2018-04-27T10:18:26.343Z,100929.68
2018-04-27T10:20:54.718Z,100924.17
2018-04-27T10:23:23.061Z,100925.44
2018-04-27T10:25:51.421Z,100910.55
2018-04-27T10:28:19.801Z,100903.55
2018-04-27T10:30:48.159Z,100896.27
2018-04-27T10:33:17.583Z,100896.38
2018-04-27T10:35:45.971Z,100878.51
2018-04-27T10:38:14.316Z,100881.49
2018-04-27T10:40:42.680Z,100877.42
2018-04-27T10:43:10.996Z,100870.70
2018-04-27T10:45:39.522Z,100870.48
2018-04-27T10:48:07.927Z,100870.09
2018-04-27T10:50:37.091Z,100860.20
2018-04-27T10:53:05.558Z,100856.65
2018-04-27T10:55:33.870Z,100862.84
2018-04-27T10:58:02.255Z,100859.36
2018-04-27T11:00:31.212Z,100853.67
2018-04-27T11:02:59.539Z,100843.22
2018-04-27T11:05:28.791Z,100842.84
2018-04-27T11:07:57.736Z,100838.13
2018-04-27T11:10:26.906Z,100832.66
2018-04-27T11:12:55.681Z,100825.86
2018-04-27T11:15:24.384Z,100819.71
2018-04-27T11:17:53.117Z,100816.05
2018-04-27T11:20:22.487Z,100809.05
2018-04-27T11:22:51.726Z,100804.50
2018-04-27T11:25:21.113Z,100809.58
2018-04-27T11:27:50.147Z,100805.57
2018-04-27T11:30:20.431Z,100805.23
2018-04-27T11:32:48.772Z,100797.19
2018-04-27T11:35:17.675Z,100801.75
2018-04-27T11:37:46.023Z,100795.44
2018-04-27T11:40:14.370Z,100790.77
2018-04-27T11:42:42.698Z,100797.95
2018-04-27T11:45:11.974Z,100794.29
2018-04-27T11:47:40.360Z,100792.63
2018-04-27T11:50:08.809Z,100789.83
2018-04-27T11:52:37.189Z,100792.72
2018-04-27T11:55:06.085Z,100774.56
2018-04-27T11:57:34.597Z,100774.56
2018-04-27T12:00:04.545Z,100773.52
2018-04-27T12:02:34.448Z,100764.74
2018-04-27T12:05:02.957Z,100766.28
2018-04-27T12:07:31.316Z,100765.45
2018-04-27T12:09:59.742Z,100771.27
2018-04-27T12:12:28.008Z,100765.81
2018-04-27T12:14:56.335Z,100760.95
2018-04-27T12:17:24.660Z,100763.16
2018-04-27T12:19:52.997Z,100761.30
2018-04-27T12:22:21.398Z,100754.80
2018-04-27T12:24:49.752Z,100757.65
2018-04-27T12:27:18.114Z,100755.67
2018-04-27T12:29:46.509Z,100747.39
2018-04-27T12:32:15.589Z,100741.15
2018-04-27T12:34:44.701Z,100738.96
2018-04-27T12:37:13.832Z,100734.30
2018-04-27T12:39:42.196Z,100734.19
2018-04-27T12:42:10.535Z,100726.83
2018-04-27T12:44:39.683Z,100717.94
2018-04-27T12:47:08.069Z,100715.65
2018-04-27T12:49:36.470Z,100708.63
2018-04-27T12:52:04.876Z,100705.64
2018-04-27T12:54:33.145Z,100696.95
2018-04-27T12:57:02.352Z,100696.73
2018-04-27T12:59:31.490Z,100697.15
2018-04-27T13:01:59.837Z,100693.88
2018-04-27T13:04:28.196Z,100691.00
2018-04-27T13:06:57.310Z,100688.51
2018-04-27T13:09:25.678Z,100684.58
2018-04-27T13:11:54.833Z,100685.28
2018-04-27T13:14:23.222Z,100680.52
2018-04-27T13:16:51.749Z,100672.55
2018-04-27T13:19:20.107Z,100672.37
2018-04-27T13:21:49.185Z,100673.04
2018-04-27T13:24:17.541Z,100671.33
2018-04-27T13:26:45.871Z,100671.45
2018-04-27T13:29:14.240Z,100665.30
2018-04-27T13:31:44.077Z,100666.51
2018-04-27T13:34:12.439Z,100662.85
2018-04-27T13:36:41.852Z,100658.41
2018-04-27T13:39:10.343Z,100656.80
2018-04-27T13:41:38.677Z,100650.06
2018-04-27T13:44:07.791Z,100643.41
2018-04-27T13:46:36.890Z,100648.03
2018-04-27T13:49:05.270Z,100650.33
2018-04-27T13:51:33.668Z,100647.87
2018-04-27T13:54:01.974Z,100636.14
2018-04-27T13:56:30.319Z,100648.14
2018-04-27T13:58:58.692Z,100646.36
2018-04-27T14:01:27.049Z,100644.91
2018-04-27T14:03:56.978Z,100629.48
2018-04-27T14:06:27.110Z,100622.38
2018-04-27T14:08:56.252Z,100614.72
2018-04-27T14:11:24.797Z,100613.78
2018-04-27T14:13:53.180Z,100612.97
2018-04-27T14:16:21.568Z,100602.13
2018-04-27T14:18:50.713Z,100604.50
2018-04-27T14:21:19.835Z,100601.94
2018-04-27T14:23:48.219Z,100601.35
2018-04-27T14:26:16.582Z,100595.34
2018-04-27T14:28:44.953Z,100593.37
2018-04-27T14:31:13.351Z,100599.26
2018-04-27T14:33:41.772Z,100594.13
2018-04-27T14:36:10.936Z,100589.61
2018-04-27T14:38:40.173Z,100583.80
2018-04-27T14:41:08.566Z,100582.16
2018-04-27T14:43:38.136Z,100587.81
2018-04-27T14:46:07.273Z,100588.36
2018-04-27T14:48:36.368Z,100582.81
2018-04-27T14:51:04.746Z,100583.73
2018-04-27T14:53:35.512Z,100577.50
2018-04-27T14:56:06.828Z,100576.72
2018-04-27T14:58:35.956Z,100572.72
2018-04-27T15:01:04.275Z,100565.97
2018-04-27T15:03:32.615Z,100561.91
2018-04-27T15:06:01.742Z,100556.24
2018-04-27T15:08:30.127Z,100555.72
2018-04-27T15:10:58.460Z,100547.98
2018-04-27T15:13:26.828Z,100551.19
2018-04-27T15:15:55.196Z,100556.97
2018-04-27T15:18:23.587Z,100554.14
2018-04-27T15:20:51.897Z,100556.84
2018-04-27T15:23:21.042Z,100551.81
2018-04-27T15:25:50.131Z,100550.53
2018-04-27T15:28:19.241Z,100540.27
2018-04-27T15:30:47.616Z,100526.64
2018-04-27T15:33:15.999Z,100525.64
2018-04-27T15:35:44.393Z,100519.58
2018-04-27T15:38:12.743Z,100527.93
2018-04-27T15:40:41.915Z,100530.93
2018-04-27T15:43:10.251Z,100526.43
2018-04-27T15:45:38.621Z,100522.73
2018-04-27T15:48:06.937Z,100527.33
2018-04-27T15:50:35.343Z,100522.96
2018-04-27T15:53:04.520Z,100523.70
2018-04-27T15:58:12.805Z,100519.73
2018-04-27T16:00:41.123Z,100521.39
2018-04-27T16:03:09.581Z,100518.41
2018-04-27T16:05:37.955Z,100515.77
2018-04-27T16:08:06.421Z,100518.73
2018-04-27T16:10:34.793Z,100518.41
2018-04-27T16:13:17.964Z,100511.95
2018-04-27T16:15:46.399Z,100515.33
2018-04-27T16:18:14.881Z,100517.72
2018-04-27T16:20:43.432Z,100521.58
2018-04-27T16:23:12.915Z,100510.61
2018-04-27T16:25:41.326Z,100508.38
2018-04-27T16:28:09.806Z,100507.02
2018-04-27T16:30:38.145Z,100507.92
2018-04-27T16:33:06.525Z,100510.52
2018-04-27T16:35:35.778Z,100498.48
2018-04-27T16:38:04.396Z,100496.47
2018-04-27T16:40:32.765Z,100492.69
2018-04-27T16:43:02.065Z,100493.55
2018-04-27T16:45:30.444Z,100488.89
2018-04-27T16:47:58.843Z,100489.63
2018-04-27T16:50:27.386Z,100480.16
2018-04-27T16:52:56.626Z,100469.23
2018-04-27T16:55:25.297Z,100473.66
2018-04-27T16:57:53.722Z,100472.32
2018-04-27T17:00:22.100Z,100475.14
2018-04-27T17:02:50.488Z,100465.73
2018-04-27T17:05:18.860Z,100458.16
2018-04-27T17:07:47.622Z,100455.88
2018-04-27T17:10:16.870Z,100455.59
2018-04-27T17:12:45.232Z,100455.30
2018-04-27T17:15:13.687Z,100455.07
2018-04-27T17:17:42.110Z,100453.77
2018-04-27T17:20:10.454Z,100451.81
2018-04-27T17:22:38.983Z,100456.14
2018-04-27T17:25:07.338Z,100448.71
2018-04-27T17:27:35.703Z,100448.33
2018-04-27T17:30:04.077Z,100447.35
2018-04-27T17:32:32.418Z,100447.23
2018-04-27T17:35:00.965Z,100460.80
2018-04-27T17:37:30.056Z,100458.59
2018-04-27T17:39:58.400Z,100454.27
2018-04-27T17:42:26.890Z,100453.87
2018-04-27T17:44:55.266Z,100454.09
2018-04-27T17:47:23.645Z,100448.73
2018-04-27T17:49:52.030Z,100452.00
2018-04-27T17:52:21.217Z,100450.39
2018-04-27T17:54:49.686Z,100457.59
2018-04-27T17:57:18.051Z,100443.81
2018-04-27T17:59:46.658Z,100434.81
2018-04-27T18:02:15.134Z,100439.00
2018-04-27T18:04:43.605Z,100444.11
2018-04-27T18:07:12.440Z,100442.20
2018-04-27T18:09:40.784Z,100444.39
2018-04-27T18:12:09.342Z,100439.44
2018-04-27T18:14:37.547Z,100446.19
2018-04-27T18:17:05.945Z,100441.33
2018-04-27T18:19:34.304Z,100437.20
2018-04-27T18:22:02.754Z,100438.83
2018-04-27T18:24:31.532Z,100438.01
2018-04-27T18:27:00.882Z,100434.70
2018-04-27T18:29:29.309Z,100433.25
2018-04-27T18:31:57.702Z,100436.83
2018-04-27T18:34:26.194Z,100437.70
2018-04-27T18:36:54.597Z,100437.50
2018-04-27T18:39:23.032Z,100435.44
2018-04-27T18:41:51.376Z,100434.70
2018-04-27T18:44:19.802Z,100431.22
2018-04-27T18:46:48.959Z,100437.07
2018-04-27T18:49:17.314Z,100436.89
2018-04-27T18:51:45.689Z,100441.23
2018-04-27T18:54:14.093Z,100445.95
2018-04-27T18:56:44.199Z,100435.39
2018-04-27T18:59:12.632Z,100437.08
2018-04-27T19:01:40.985Z,100436.72
2018-04-27T19:04:09.389Z,100433.28
2018-04-27T19:06:37.788Z,100433.31
2018-04-27T19:09:06.549Z,100439.31
2018-04-27T19:11:35.279Z,100437.42
2018-04-27T19:14:04.239Z,100431.42
2018-04-27T19:16:37.199Z,100431.80
2018-04-27T19:19:06.426Z,100308.72
2018-04-27T19:21:34.897Z,100431.55
2018-04-27T19:24:04.151Z,100429.91
2018-04-27T19:26:33.538Z,100431.25
2018-04-27T19:29:01.906Z,100433.06
2018-04-27T19:31:30.321Z,100433.52
2018-04-27T19:33:58.721Z,100427.76
2018-04-27T19:36:27.157Z,100425.43
2018-04-27T19:38:55.549Z,100429.59
2018-04-27T19:41:23.924Z,100428.81
2018-04-27T19:43:52.745Z,100425.66
2018-04-27T19:46:22.006Z,100428.45
2018-04-27T19:48:51.946Z,100430.37
2018-04-27T19:51:20.457Z,100424.13
2018-04-27T19:53:49.673Z,100419.19
2018-04-27T19:56:19.159Z,100418.36
2018-04-27T19:58:49.533Z,100415.68
2018-04-27T20:01:18.363Z,100416.80
2018-04-27T20:03:47.602Z,100417.56
2018-04-27T20:06:16.865Z,100412.94
2018-04-27T20:08:46.590Z,100411.41
2018-04-27T20:11:16.910Z,100411.06
2018-04-27T20:13:45.469Z,100406.34
2018-04-27T20:16:14.711Z,100402.34
2018-04-27T20:18:43.224Z,100400.88
2018-04-27T20:21:11.821Z,100391.70
2018-04-27T20:23:40.377Z,100396.70
2018-04-27T20:26:08.889Z,100392.48
2018-04-27T20:28:38.898Z,100400.55
2018-04-27T20:31:07.480Z,100397.28
2018-04-27T20:33:36.124Z,100392.69
2018-04-27T20:36:07.272Z,100390.45
2018-04-27T20:38:35.826Z,100392.72
2018-04-27T20:41:10.429Z,100392.52
2018-04-27T20:43:39.759Z,100387.84
2018-04-27T20:46:08.977Z,100390.64
2018-04-27T20:48:37.437Z,100392.89
2018-04-27T20:51:08.375Z,100387.57
2018-04-27T20:53:57.501Z,100384.52
2018-04-27T20:56:26.689Z,100377.67
2018-04-27T20:58:55.561Z,100378.09
2018-04-27T21:01:24.759Z,100380.69
2018-04-27T21:03:54.961Z,100378.22
2018-04-27T21:06:24.100Z,100376.44
2018-04-27T21:08:53.341Z,100364.97
2018-04-27T21:11:23.324Z,100372.11
2018-04-27T21:13:53.188Z,100370.68
2018-04-27T21:16:21.745Z,100363.26
2018-04-27T21:18:50.927Z,100354.01
2018-04-27T21:21:19.797Z,100354.25
2018-04-27T21:23:48.329Z,100355.89
2018-04-27T21:26:27.259Z,100353.40
2018-04-27T21:28:57.603Z,100353.94
2018-04-27T21:31:26.464Z,100349.16
2018-04-27T21:33:57.554Z,100350.62
2018-04-27T21:36:28.540Z,100344.45
2018-04-27T21:42:06.940Z,100339.85
2018-04-27T21:44:43.368Z,100337.67
2018-04-27T21:50:21.051Z,100335.45
2018-04-27T21:52:55.288Z,100331.61
2018-04-27T21:55:27.964Z,100331.67
2018-04-27T21:58:29.575Z,100332.22
2018-04-27T22:00:58.763Z,100326.59
2018-04-27T22:03:27.547Z,100326.75
2018-04-27T22:06:01.115Z,100330.11
2018-04-27T22:11:44.793Z,100325.63
2018-04-27T22:17:29.901Z,100318.63
2018-04-27T22:19:59.979Z,100321.43
2018-04-27T22:22:28.347Z,100320.21
2018-04-27T22:25:08.543Z,100323.19
2018-04-27T22:27:36.928Z,100317.70
2018-04-27T22:30:18.968Z,100314.92
2018-04-27T22:32:47.359Z,100315.96
2018-04-27T22:41:32.149Z,100306.02
2018-04-27T22:44:02.040Z,100303.00
2018-04-27T22:46:31.153Z,100302.63
2018-04-27T22:49:08.916Z,100298.60
2018-04-27T22:51:41.817Z,100297.35
2018-04-27T22:57:35.640Z,100289.72
2018-04-27T23:00:18.030Z,100290.16
2018-04-27T23:02:47.222Z,100288.12
2018-04-27T23:05:32.339Z,100282.05
2018-04-27T23:08:04.439Z,100283.57
2018-04-27T23:13:47.716Z,100266.06
2018-04-27T23:16:24.108Z,100266.66
2018-04-27T23:18:52.915Z,100264.50
2018-04-27T23:24:20.409Z,100265.96
2018-04-27T23:26:50.622Z,100269.06
2018-04-27T23:29:20.205Z,100268.56
2018-04-27T23:31:50.261Z,100267.41
2018-04-27T23:34:21.724Z,100265.41
2018-04-27T23:36:51.691Z,100262.36
2018-04-27T23:39:20.048Z,100270.46
2018-04-27T23:41:48.374Z,100262.71
2018-04-27T23:44:17.110Z,100264.08
2018-04-27T23:46:45.482Z,100258.78
2018-04-27T23:49:13.829Z,100257.89
2018-04-27T23:51:43.567Z,100254.87
2018-04-27T23:54:13.483Z,100250.16
2018-04-27T23:56:44.392Z,100244.37
2018-04-27T23:59:13.554Z,100252.75
